Aérodrome :
LOGIN :

S'inscrire | Disclaimer

   EN    FR    IT 

 










Légende :    VFR   VFR Marginal   IFR   IFR Intensif   IFR Très Intensif
Visi : 
Plafond : 
>= 8 km
>= 3000ft
5 à 8 km
1000 à 3000 ft
1500m à 5 km
500 à 1000 ft
800 à 1500m
200 à 500 ft
< 800m
< 200 ft
Symboles :   Orages  Brouillard  Fortes neiges  Fortes précipitations  Vent > 20 kt
SIGMETs :   Divers  Orages  Givrage  Turbulence  Onde Orograph.  Cendres Volcan.







- Altitude de l'aérodrome : 1768 ft


LEHC - Huesca Pirineos

DERNIER METAR :
  • 251100Z 25013KT 210V290 9999 FEW035 24/13 Q1019

METARs EXPIRÉS :
  • 251030Z 24010KT 210V300 9999 FEW035 24/14 Q1019
  • 251000Z 25006KT 200V290 9999 FEW065 23/14 Q1019
  • 250930Z 26007KT 230V290 9999 FEW065 22/14 Q1019
  • 250900Z 25008KT 220V290 9999 FEW065 20/15 Q1019
  • 250830Z 26004KT 220V300 9999 FEW065 20/14 Q1019

TAF TAF LEHC
Valide du 25 à 09h jusqu'au 26 à 09h UTC


250800Z 2509/2609 VRB03KT 9999 FEW020 TX24/2515Z TN11/2606Z
BECMG 2509/2510 28012KT
TEMPO 2514/2519 28020G35KT
BECMG 2518/2520 27005KT
Pas de NOTAMs connus pour ce terrain.



MET'MAP, la Météo Aéronautique d'un coup d'oeil ! - Copyright ORBIFLY Décembre 2007 - Disclaimer

ORBIFLY MET'MAP TEAM :

Programmation & Développement : Alexandra Zaïnal
Conception & Développement : Baudouin d'Aumeries
Co-Programmation & Développement : Marc-Olivier Méhu
Soutien technique & logistique : Manuel Goepfert

Contact : metmap@orbifly.com




SOURCES & CREDITS :

   NOAA